< < Back
Terminal Aerodrome Forecast


Current Version              Previous Versions:   1  2  3  4  5  6  7  8  9  

Terminal Aerodrome Forecast

092
FTUS44 KMOB 301700
TAFPNS
TAF
KPNS 301720Z 3018/3118 01014G25KT P6SM SCT250
     FM302300 01011KT P6SM FEW250
     FM310300 03006KT P6SM SKC=



Latest METAR

080
SAUS70 KWBC 311900 RRM
MTRPNS
METAR KPNS 311853Z 12007KT 10SM CLR 13/03 A3029 RMK AO2 SLP261
T01330033


USA.gov is the U.S. government's official web portal to all federal, state and local government web resources and services.